createdAt,value
2018-06-12T00:00:19.230Z,0.00
2018-06-12T00:01:19.203Z,0.00
2018-06-12T00:02:19.188Z,0.00
2018-06-12T00:03:19.153Z,0.00
2018-06-12T00:04:19.138Z,0.00
2018-06-12T00:05:19.110Z,0.00
2018-06-12T00:06:19.089Z,0.00
2018-06-12T00:07:19.061Z,0.00
2018-06-12T00:08:19.040Z,0.00
2018-06-12T00:09:19.011Z,0.00
2018-06-12T00:10:18.994Z,0.00
2018-06-12T00:11:18.974Z,0.00
2018-06-12T00:12:18.938Z,0.00
2018-06-12T00:13:18.917Z,0.00
2018-06-12T00:14:18.894Z,0.00
2018-06-12T00:15:18.873Z,0.00
2018-06-12T00:16:18.836Z,0.00
2018-06-12T00:17:18.821Z,0.00
2018-06-12T00:18:18.793Z,0.00
2018-06-12T00:19:18.772Z,0.00
2018-06-12T00:20:18.740Z,0.00
2018-06-12T00:21:18.721Z,0.00
2018-06-12T00:22:18.696Z,0.00
2018-06-12T00:23:18.678Z,0.00
2018-06-12T00:24:18.649Z,0.00
2018-06-12T00:25:18.618Z,0.00
2018-06-12T00:26:18.597Z,0.00
2018-06-12T00:27:18.575Z,0.00
2018-06-12T00:28:18.545Z,0.00
2018-06-12T00:29:18.526Z,0.00
2018-06-12T00:30:18.498Z,0.00
2018-06-12T00:31:18.482Z,0.00
2018-06-12T00:32:18.455Z,0.00
2018-06-12T00:33:18.428Z,0.00
2018-06-12T00:34:18.401Z,0.00
2018-06-12T00:35:18.376Z,0.00
2018-06-12T00:36:18.357Z,0.00
2018-06-12T00:37:18.326Z,0.00
2018-06-12T00:38:18.304Z,0.00
2018-06-12T00:39:18.282Z,0.00
2018-06-12T00:40:18.251Z,0.00
2018-06-12T00:41:18.235Z,0.00
2018-06-12T00:42:18.206Z,0.00
2018-06-12T00:43:18.191Z,0.00
2018-06-12T00:44:18.161Z,0.00
2018-06-12T00:45:18.136Z,0.00
2018-06-12T00:46:18.103Z,0.00
2018-06-12T00:47:18.087Z,0.00
2018-06-12T00:48:18.055Z,0.00
2018-06-12T00:49:18.032Z,0.00
2018-06-12T00:50:18.009Z,0.00
2018-06-12T00:51:17.986Z,0.00
2018-06-12T00:52:17.957Z,0.00
2018-06-12T00:53:17.938Z,0.00
2018-06-12T00:54:17.907Z,0.00
2018-06-12T00:55:17.881Z,0.00
2018-06-12T00:56:17.864Z,0.00
2018-06-12T00:57:17.843Z,0.00
2018-06-12T00:58:17.813Z,0.00
2018-06-12T00:59:17.801Z,0.00
2018-06-12T01:00:17.770Z,0.00
2018-06-12T01:01:17.740Z,0.00
2018-06-12T01:02:17.713Z,0.00
2018-06-12T01:03:17.683Z,0.00
2018-06-12T01:04:17.658Z,0.00
2018-06-12T01:05:17.636Z,0.00
2018-06-12T01:06:17.613Z,0.00
2018-06-12T01:07:17.596Z,0.00
2018-06-12T01:08:17.560Z,0.00
2018-06-12T01:09:17.539Z,0.00
2018-06-12T01:10:17.516Z,0.00
2018-06-12T01:11:17.483Z,0.00
2018-06-12T01:12:17.470Z,0.00
2018-06-12T01:13:17.443Z,0.00
2018-06-12T01:14:17.416Z,0.00
2018-06-12T01:15:17.394Z,0.00
2018-06-12T01:16:17.373Z,0.00
2018-06-12T01:17:17.338Z,0.00
2018-06-12T01:18:17.312Z,0.00
2018-06-12T01:19:17.299Z,0.00
2018-06-12T01:20:17.276Z,0.00
2018-06-12T01:21:17.243Z,0.00
2018-06-12T01:22:17.214Z,0.00
2018-06-12T01:23:17.196Z,0.00
2018-06-12T01:24:17.173Z,0.00
2018-06-12T01:25:17.140Z,0.00
2018-06-12T01:26:17.120Z,0.00
2018-06-12T01:27:17.096Z,0.00
2018-06-12T01:28:17.066Z,0.00
2018-06-12T01:29:17.056Z,0.00
2018-06-12T01:30:17.022Z,0.00
2018-06-12T01:31:16.987Z,0.00
2018-06-12T01:32:16.966Z,0.00
2018-06-12T01:33:16.950Z,0.00
2018-06-12T01:34:16.915Z,0.00
2018-06-12T01:35:16.901Z,0.00
2018-06-12T01:36:16.864Z,0.00
2018-06-12T01:37:16.847Z,0.00
2018-06-12T01:38:16.815Z,0.00
2018-06-12T01:39:16.793Z,0.00
2018-06-12T01:40:16.771Z,0.00
2018-06-12T01:41:16.742Z,0.00
2018-06-12T01:42:16.720Z,0.00
2018-06-12T01:43:16.689Z,0.00
2018-06-12T01:44:16.675Z,0.00
2018-06-12T01:45:16.645Z,0.00
2018-06-12T01:46:16.616Z,0.00
2018-06-12T01:47:16.600Z,0.00
2018-06-12T01:48:16.573Z,0.00
2018-06-12T01:49:16.541Z,0.00
2018-06-12T01:50:16.523Z,0.00
2018-06-12T01:51:16.488Z,0.00
2018-06-12T01:52:16.474Z,0.00
2018-06-12T01:53:16.442Z,0.00
2018-06-12T01:54:16.417Z,0.00
2018-06-12T01:55:16.396Z,0.00
2018-06-12T01:56:16.372Z,0.00
2018-06-12T01:57:16.348Z,0.00
2018-06-12T01:58:16.316Z,0.00
2018-06-12T01:59:16.297Z,0.00
2018-06-12T02:00:16.265Z,0.00
2018-06-12T02:01:16.247Z,0.00
2018-06-12T02:02:16.216Z,0.00
2018-06-12T02:03:16.203Z,0.00
2018-06-12T02:04:16.173Z,0.00
2018-06-12T02:05:16.151Z,0.00
2018-06-12T02:06:16.119Z,0.00
2018-06-12T02:07:16.100Z,0.00
2018-06-12T02:08:16.066Z,0.00
2018-06-12T02:09:16.051Z,0.00
2018-06-12T02:13:19.933Z,0.00
2018-06-12T02:14:19.900Z,0.00
2018-06-12T02:16:12.809Z,0.00
2018-06-12T02:17:12.751Z,0.00
2018-06-12T02:18:12.734Z,0.00
2018-06-12T02:19:12.701Z,0.00
2018-06-12T02:20:12.682Z,0.00
2018-06-12T02:21:12.657Z,0.00
2018-06-12T02:22:12.630Z,0.00
2018-06-12T02:23:12.604Z,0.00
2018-06-12T02:24:12.581Z,0.00
2018-06-12T02:25:12.556Z,0.00
2018-06-12T02:26:12.528Z,0.00
2018-06-12T02:27:12.499Z,0.00
2018-06-12T02:28:12.483Z,0.00
2018-06-12T02:29:12.450Z,0.00
2018-06-12T02:30:12.438Z,0.00
2018-06-12T02:31:12.408Z,0.00
2018-06-12T02:32:12.379Z,0.00
2018-06-12T02:33:12.359Z,0.00
2018-06-12T02:34:12.334Z,0.00
2018-06-12T02:35:12.304Z,0.00
2018-06-12T02:36:12.284Z,0.00
2018-06-12T02:37:12.248Z,0.00
2018-06-12T02:38:12.229Z,0.00
2018-06-12T02:39:12.203Z,0.00
2018-06-12T02:40:12.180Z,0.00
2018-06-12T02:41:12.160Z,0.00
2018-06-12T02:42:12.133Z,0.00
2018-06-12T02:43:12.112Z,0.00
2018-06-12T02:44:12.075Z,0.00
2018-06-12T02:45:12.071Z,0.00
2018-06-12T02:46:12.025Z,0.00
2018-06-12T02:47:12.000Z,0.00
2018-06-12T02:48:11.984Z,0.00
2018-06-12T02:49:11.951Z,0.00
2018-06-12T02:50:11.934Z,0.00
2018-06-12T02:51:11.908Z,0.00
2018-06-12T02:52:11.875Z,0.00
2018-06-12T02:53:11.860Z,0.00
2018-06-12T02:54:11.827Z,0.00
2018-06-12T02:55:11.810Z,0.00
2018-06-12T02:56:11.780Z,0.00
2018-06-12T02:57:11.756Z,0.00
2018-06-12T02:58:11.739Z,0.00
2018-06-12T02:59:11.711Z,0.00
2018-06-12T03:00:11.679Z,0.00
2018-06-12T03:01:11.657Z,0.00
2018-06-12T03:02:11.628Z,0.00
2018-06-12T03:03:11.609Z,0.00
2018-06-12T03:04:11.576Z,0.00
2018-06-12T03:05:11.562Z,0.00
2018-06-12T03:06:11.527Z,0.00
2018-06-12T03:07:11.511Z,0.00
2018-06-12T03:08:11.490Z,0.00
2018-06-12T03:09:11.457Z,0.00
2018-06-12T03:10:11.430Z,0.00
2018-06-12T03:11:11.415Z,0.00
2018-06-12T03:12:11.382Z,0.00
2018-06-12T03:13:11.364Z,5.63
2018-06-12T03:14:11.328Z,5.63
2018-06-12T03:15:11.304Z,5.63
2018-06-12T03:16:11.283Z,5.63
2018-06-12T03:17:11.261Z,5.63
2018-06-12T03:18:11.228Z,5.63
2018-06-12T03:19:11.209Z,5.63
2018-06-12T03:20:11.188Z,5.63
2018-06-12T03:21:11.167Z,5.63
2018-06-12T03:22:11.132Z,5.63
2018-06-12T03:23:11.138Z,5.63
2018-06-12T03:24:11.092Z,5.63
2018-06-12T03:25:11.058Z,5.63
2018-06-12T03:26:11.030Z,11.25
2018-06-12T03:27:11.011Z,11.25
2018-06-12T03:28:10.990Z,11.25
2018-06-12T03:29:10.964Z,11.25
2018-06-12T03:30:11.822Z,11.25
2018-06-12T03:31:10.913Z,11.25
2018-06-12T03:32:10.883Z,11.25
2018-06-12T03:33:10.856Z,11.25
2018-06-12T03:34:10.840Z,11.25
2018-06-12T03:35:10.816Z,11.25
2018-06-12T03:36:10.784Z,11.25
2018-06-12T03:37:10.763Z,11.25
2018-06-12T03:38:10.739Z,11.25
2018-06-12T03:39:10.713Z,16.88
2018-06-12T03:40:10.688Z,16.88
2018-06-12T03:41:10.658Z,16.88
2018-06-12T03:42:10.641Z,16.88
2018-06-12T03:43:10.616Z,16.88
2018-06-12T03:44:10.583Z,16.88
2018-06-12T03:45:10.568Z,16.88
2018-06-12T03:46:10.538Z,11.25
2018-06-12T03:47:10.519Z,11.25
2018-06-12T03:48:10.494Z,11.25
2018-06-12T03:49:10.464Z,16.88
2018-06-12T03:50:10.442Z,16.88
2018-06-12T03:51:10.419Z,16.88
2018-06-12T03:52:10.387Z,16.88
2018-06-12T03:53:10.365Z,16.88
2018-06-12T03:54:10.343Z,16.88
2018-06-12T03:55:10.318Z,22.50
2018-06-12T03:56:10.287Z,22.50
2018-06-12T03:57:10.263Z,22.50
2018-06-12T03:58:10.233Z,22.50
2018-06-12T03:59:10.211Z,22.50
2018-06-12T04:00:10.191Z,22.50
2018-06-12T04:01:10.167Z,22.50
2018-06-12T04:02:10.138Z,28.13
2018-06-12T04:03:10.109Z,28.13
2018-06-12T04:04:10.098Z,28.13
2018-06-12T04:05:10.061Z,28.13
2018-06-12T04:06:10.048Z,28.13
2018-06-12T04:07:10.016Z,28.13
2018-06-12T04:08:09.991Z,28.13
2018-06-12T04:09:09.968Z,28.13
2018-06-12T04:10:09.942Z,28.13
2018-06-12T04:11:09.916Z,28.13
2018-06-12T04:12:09.899Z,28.13
2018-06-12T04:13:09.866Z,28.13
2018-06-12T04:14:09.840Z,28.13
2018-06-12T04:15:09.869Z,28.13
2018-06-12T04:16:09.786Z,28.13
2018-06-12T04:17:09.772Z,28.13
2018-06-12T04:18:09.737Z,28.13
2018-06-12T04:19:09.719Z,28.13
2018-06-12T04:20:09.698Z,28.13
2018-06-12T04:21:09.672Z,28.13
2018-06-12T04:22:09.638Z,33.75
2018-06-12T04:23:09.618Z,33.75
2018-06-12T04:24:09.591Z,33.75
2018-06-12T04:25:09.590Z,33.75
2018-06-12T04:26:09.540Z,33.75
2018-06-12T04:27:09.517Z,33.75
2018-06-12T04:28:09.493Z,33.75
2018-06-12T04:29:09.473Z,39.38
2018-06-12T04:30:09.439Z,39.38
2018-06-12T04:31:09.419Z,39.38
2018-06-12T04:32:09.397Z,39.38
2018-06-12T04:33:09.370Z,39.38
2018-06-12T04:34:09.348Z,45.00
2018-06-12T04:35:09.314Z,45.00
2018-06-12T04:36:09.298Z,45.00
2018-06-12T04:37:09.272Z,50.63
2018-06-12T04:38:09.246Z,50.63
2018-06-12T04:39:09.219Z,50.63
2018-06-12T04:40:09.198Z,50.63
2018-06-12T04:41:09.178Z,50.63
2018-06-12T04:42:09.146Z,50.63
2018-06-12T04:43:09.125Z,50.63
2018-06-12T04:44:09.095Z,50.63
2018-06-12T04:45:09.070Z,50.63
2018-06-12T04:46:09.046Z,50.63
2018-06-12T04:47:09.023Z,50.63
2018-06-12T04:48:08.994Z,50.63
2018-06-12T04:49:08.978Z,50.63
2018-06-12T04:50:08.942Z,50.63
2018-06-12T04:51:08.933Z,56.25
2018-06-12T04:52:08.894Z,56.25
2018-06-12T04:53:08.879Z,56.25
2018-06-12T04:54:08.853Z,56.25
2018-06-12T04:55:08.824Z,56.25
2018-06-12T04:56:08.798Z,56.25
2018-06-12T04:57:08.777Z,56.25
2018-06-12T04:58:08.752Z,56.25
2018-06-12T04:59:08.722Z,56.25
2018-06-12T05:00:08.699Z,56.25
2018-06-12T05:01:08.675Z,61.88
2018-06-12T05:02:08.655Z,61.88
2018-06-12T05:03:08.625Z,61.88
2018-06-12T05:04:08.615Z,61.88
2018-06-12T05:05:08.573Z,61.88
2018-06-12T05:06:08.554Z,61.88
2018-06-12T05:07:08.547Z,67.50
2018-06-12T05:08:08.503Z,67.50
2018-06-12T05:09:08.481Z,67.50
2018-06-12T05:10:08.458Z,67.50
2018-06-12T05:11:08.435Z,67.50
2018-06-12T05:12:08.404Z,67.50
2018-06-12T05:13:08.386Z,67.50
2018-06-12T05:14:08.355Z,67.50
2018-06-12T05:15:08.338Z,67.50
2018-06-12T05:16:08.313Z,67.50
2018-06-12T05:17:08.280Z,67.50
2018-06-12T05:18:08.263Z,73.13
2018-06-12T05:19:08.237Z,73.13
2018-06-12T05:20:08.207Z,73.13
2018-06-12T05:21:08.186Z,73.13
2018-06-12T05:22:08.158Z,73.13
2018-06-12T05:23:08.132Z,73.13
2018-06-12T05:24:08.113Z,73.13
2018-06-12T05:25:08.092Z,78.75
2018-06-12T05:26:08.065Z,78.75
2018-06-12T05:27:08.035Z,78.75
2018-06-12T05:28:08.021Z,78.75
2018-06-12T05:29:07.990Z,78.75
2018-06-12T05:30:07.963Z,78.75
2018-06-12T05:31:08.008Z,78.75
2018-06-12T05:32:07.917Z,78.75
2018-06-12T05:33:07.896Z,84.38
2018-06-12T05:34:07.862Z,84.38
2018-06-12T05:35:07.843Z,84.38
2018-06-12T05:36:07.817Z,90.00
2018-06-12T05:37:07.787Z,90.00
2018-06-12T05:38:07.773Z,90.00
2018-06-12T05:39:07.737Z,90.00
2018-06-12T05:40:07.727Z,90.00
2018-06-12T05:41:07.699Z,95.63
2018-06-12T05:42:07.666Z,95.63
2018-06-12T05:43:07.642Z,95.63
2018-06-12T05:44:07.623Z,95.63
2018-06-12T05:45:07.603Z,95.63
2018-06-12T05:46:07.573Z,101.25
2018-06-12T05:47:07.548Z,95.63
2018-06-12T05:48:07.526Z,101.25
2018-06-12T05:49:07.499Z,95.63
2018-06-12T05:50:07.479Z,95.63
2018-06-12T05:51:07.446Z,95.63
2018-06-12T05:52:07.429Z,95.63
2018-06-12T05:53:07.404Z,101.25
2018-06-12T05:54:07.380Z,101.25
2018-06-12T05:55:07.356Z,101.25
2018-06-12T05:56:07.322Z,101.25
2018-06-12T05:57:07.300Z,101.25
2018-06-12T05:58:07.279Z,101.25
2018-06-12T05:59:07.256Z,101.25
2018-06-12T06:00:07.227Z,106.88
2018-06-12T06:01:07.200Z,106.88
2018-06-12T06:02:07.186Z,106.88
2018-06-12T06:03:07.153Z,112.50
2018-06-12T06:04:07.125Z,112.50
2018-06-12T06:05:07.114Z,112.50
2018-06-12T06:06:07.084Z,118.13
2018-06-12T06:07:07.055Z,118.13
2018-06-12T06:08:07.040Z,118.13
2018-06-12T06:09:07.006Z,118.13
2018-06-12T06:10:06.997Z,123.75
2018-06-12T06:11:06.963Z,123.75
2018-06-12T06:12:06.938Z,123.75
2018-06-12T06:13:06.908Z,123.75
2018-06-12T06:14:06.896Z,123.75
2018-06-12T06:15:06.867Z,129.38
2018-06-12T06:16:06.844Z,129.38
2018-06-12T06:17:06.868Z,129.38
2018-06-12T06:18:06.787Z,129.38
2018-06-12T06:19:06.768Z,129.38
2018-06-12T06:20:06.743Z,129.38
2018-06-12T06:21:06.713Z,129.38
2018-06-12T06:22:06.702Z,129.38
2018-06-12T06:23:06.667Z,123.75
2018-06-12T06:24:06.644Z,123.75
2018-06-12T06:25:06.624Z,123.75
2018-06-12T06:26:06.594Z,123.75
2018-06-12T06:27:06.569Z,123.75
2018-06-12T06:28:06.548Z,123.75
2018-06-12T06:29:06.521Z,123.75
2018-06-12T06:30:06.501Z,123.75
2018-06-12T06:31:06.475Z,118.13
2018-06-12T06:32:06.447Z,118.13
2018-06-12T06:33:06.428Z,118.13
2018-06-12T06:34:06.408Z,118.13
2018-06-12T06:35:06.376Z,118.13
2018-06-12T06:36:06.349Z,118.13
2018-06-12T06:37:06.327Z,118.13
2018-06-12T06:38:06.311Z,118.13
2018-06-12T06:39:06.283Z,118.13
2018-06-12T06:40:06.253Z,118.13
2018-06-12T06:41:06.238Z,118.13
2018-06-12T06:42:06.212Z,123.75
2018-06-12T06:43:06.219Z,129.38
2018-06-12T06:44:06.169Z,135.00
2018-06-12T06:45:06.135Z,135.00
2018-06-12T06:46:06.108Z,135.00
2018-06-12T06:47:06.092Z,135.00
2018-06-12T06:48:06.063Z,135.00
2018-06-12T06:49:06.041Z,129.38
2018-06-12T06:50:06.009Z,129.38
2018-06-12T06:51:06.022Z,129.38
2018-06-12T06:52:05.970Z,129.38
2018-06-12T06:53:05.942Z,129.38
2018-06-12T06:54:05.914Z,135.00
2018-06-12T06:55:05.890Z,140.63
2018-06-12T06:56:05.869Z,140.63
2018-06-12T06:57:05.842Z,140.63
2018-06-12T06:58:05.818Z,146.25
2018-06-12T06:59:05.799Z,146.25
2018-06-12T07:00:05.772Z,151.88
2018-06-12T07:01:05.747Z,151.88
2018-06-12T07:02:05.727Z,157.50
2018-06-12T07:03:05.710Z,157.50
2018-06-12T07:04:05.692Z,168.75
2018-06-12T07:05:05.654Z,174.38
2018-06-12T07:06:05.632Z,185.63
2018-06-12T07:07:05.607Z,191.25
2018-06-12T07:08:05.580Z,196.88
2018-06-12T07:09:05.574Z,202.50
2018-06-12T07:10:05.527Z,191.25
2018-06-12T07:11:05.511Z,185.63
2018-06-12T07:12:05.479Z,202.50
2018-06-12T07:13:05.460Z,196.88
2018-06-12T07:14:05.439Z,180.00
2018-06-12T07:15:05.414Z,174.38
2018-06-12T07:16:05.385Z,180.00
2018-06-12T07:17:05.358Z,180.00
2018-06-12T07:18:05.341Z,180.00
2018-06-12T07:19:05.311Z,180.00
2018-06-12T07:20:05.295Z,174.38
2018-06-12T07:21:05.277Z,185.63
2018-06-12T07:22:05.239Z,191.25
2018-06-12T07:23:05.216Z,202.50
2018-06-12T07:24:05.191Z,202.50
2018-06-12T07:25:05.167Z,196.88
2018-06-12T07:26:05.144Z,196.88
2018-06-12T07:27:05.120Z,208.13
2018-06-12T07:28:05.099Z,208.13
2018-06-12T07:29:05.079Z,202.50
2018-06-12T07:30:05.069Z,185.63
2018-06-12T07:31:05.031Z,174.38
2018-06-12T07:32:05.005Z,168.75
2018-06-12T07:33:04.983Z,157.50
2018-06-12T07:34:04.958Z,146.25
2018-06-12T07:35:04.937Z,135.00
2018-06-12T07:36:04.908Z,135.00
2018-06-12T07:37:04.890Z,129.38
2018-06-12T07:38:04.861Z,123.75
2018-06-12T07:39:04.844Z,129.38
2018-06-12T07:40:04.809Z,129.38
2018-06-12T07:41:04.796Z,129.38
2018-06-12T07:42:04.762Z,135.00
2018-06-12T07:43:04.745Z,140.63
2018-06-12T07:44:04.725Z,140.63
2018-06-12T07:45:04.714Z,140.63
2018-06-12T07:46:04.671Z,140.63
2018-06-12T07:47:04.644Z,146.25
2018-06-12T07:48:04.631Z,146.25
2018-06-12T07:49:04.596Z,151.88
2018-06-12T07:50:04.582Z,151.88
2018-06-12T07:51:04.566Z,157.50
2018-06-12T07:52:04.531Z,157.50
2018-06-12T07:53:04.504Z,157.50
2018-06-12T07:54:04.486Z,157.50
2018-06-12T07:55:04.506Z,168.75
2018-06-12T07:56:04.437Z,174.38
2018-06-12T07:57:04.407Z,180.00
2018-06-12T07:58:04.390Z,185.63
2018-06-12T07:59:04.360Z,191.25
2018-06-12T08:00:04.337Z,191.25
2018-06-12T08:01:04.340Z,191.25
2018-06-12T08:02:04.292Z,196.88
2018-06-12T08:03:04.270Z,202.50
2018-06-12T08:04:04.237Z,202.50
2018-06-12T08:05:04.215Z,202.50
2018-06-12T08:06:04.196Z,202.50
2018-06-12T08:07:04.240Z,208.13
2018-06-12T08:08:04.144Z,208.13
2018-06-12T08:09:04.118Z,202.50
2018-06-12T08:10:04.105Z,196.88
2018-06-12T08:11:04.080Z,196.88
2018-06-12T08:12:04.074Z,185.63
2018-06-12T08:13:04.044Z,185.63
2018-06-12T08:14:04.003Z,180.00
2018-06-12T08:15:03.979Z,180.00
2018-06-12T08:16:03.953Z,185.63
2018-06-12T08:17:03.939Z,191.25
2018-06-12T08:18:03.943Z,191.25
2018-06-12T08:19:03.908Z,196.88
2018-06-12T08:20:03.864Z,191.25
2018-06-12T08:21:03.856Z,196.88
2018-06-12T08:22:03.810Z,191.25
2018-06-12T08:23:03.789Z,191.25
2018-06-12T08:24:03.767Z,191.25
2018-06-12T08:25:03.745Z,191.25
2018-06-12T08:26:03.713Z,191.25
2018-06-12T08:27:03.689Z,180.00
2018-06-12T08:28:03.674Z,174.38
2018-06-12T08:29:03.645Z,174.38
2018-06-12T08:30:03.760Z,180.00
2018-06-12T08:31:03.617Z,191.25
2018-06-12T08:32:03.581Z,202.50
2018-06-12T08:33:03.557Z,225.00
2018-06-12T08:34:03.526Z,219.38
2018-06-12T08:35:03.513Z,202.50
2018-06-12T08:36:03.483Z,168.75
2018-06-12T08:37:03.457Z,157.50
2018-06-12T08:38:03.441Z,157.50
2018-06-12T08:39:03.403Z,163.13
2018-06-12T08:40:03.407Z,180.00
2018-06-12T08:41:03.355Z,202.50
2018-06-12T08:42:03.340Z,213.75
2018-06-12T08:43:03.321Z,236.25
2018-06-12T08:44:03.310Z,247.50
2018-06-12T08:45:03.267Z,236.25
2018-06-12T08:46:03.244Z,219.38
2018-06-12T08:47:03.215Z,196.88
2018-06-12T08:48:03.200Z,180.00
2018-06-12T08:49:03.169Z,174.38
2018-06-12T08:50:03.152Z,163.13
2018-06-12T08:51:03.120Z,163.13
2018-06-12T08:52:03.105Z,163.13
2018-06-12T08:53:03.079Z,157.50
2018-06-12T08:54:03.062Z,157.50
2018-06-12T08:55:03.040Z,163.13
2018-06-12T08:56:03.007Z,180.00
2018-06-12T08:57:02.980Z,191.25
2018-06-12T08:58:02.962Z,196.88
2018-06-12T08:59:02.940Z,202.50
2018-06-12T09:00:02.910Z,202.50
2018-06-12T09:01:02.885Z,236.25
2018-06-12T09:02:02.870Z,264.38
2018-06-12T09:03:02.846Z,281.25
2018-06-12T09:04:02.825Z,270.00
2018-06-12T09:05:02.793Z,286.88
2018-06-12T09:06:02.776Z,298.13
2018-06-12T09:07:02.754Z,292.50
2018-06-12T09:08:02.722Z,298.13
2018-06-12T09:09:02.697Z,303.75
2018-06-12T09:10:02.679Z,320.63
2018-06-12T09:11:02.657Z,326.25
2018-06-12T09:12:02.629Z,320.63
2018-06-12T09:13:02.603Z,298.13
2018-06-12T09:14:02.590Z,270.00
2018-06-12T09:15:02.561Z,241.88
2018-06-12T09:16:02.533Z,241.88
2018-06-12T09:17:02.517Z,225.00
2018-06-12T09:18:02.496Z,208.13
2018-06-12T09:19:02.463Z,191.25
2018-06-12T09:20:02.448Z,185.63
2018-06-12T09:21:02.427Z,185.63
2018-06-12T09:22:02.398Z,180.00
2018-06-12T09:23:02.370Z,185.63
2018-06-12T09:24:02.358Z,202.50
2018-06-12T09:25:02.375Z,208.13
2018-06-12T09:26:02.304Z,213.75
2018-06-12T09:27:02.294Z,213.75
2018-06-12T09:28:02.262Z,225.00
2018-06-12T09:29:02.242Z,230.63
2018-06-12T09:30:02.208Z,196.88
2018-06-12T09:31:02.186Z,202.50
2018-06-12T09:32:02.163Z,213.75
2018-06-12T09:33:02.137Z,213.75
2018-06-12T09:34:02.122Z,191.25
2018-06-12T09:35:02.092Z,191.25
2018-06-12T09:36:02.109Z,174.38
2018-06-12T09:37:02.046Z,174.38
2018-06-12T09:38:02.026Z,157.50
2018-06-12T09:39:01.998Z,151.88
2018-06-12T09:40:01.978Z,163.13
2018-06-12T09:41:01.977Z,174.38
2018-06-12T09:42:01.942Z,185.63
2018-06-12T09:43:01.901Z,191.25
2018-06-12T09:44:01.879Z,219.38
2018-06-12T09:45:01.858Z,219.38
2018-06-12T09:46:01.841Z,219.38
2018-06-12T09:47:01.816Z,168.75
2018-06-12T09:48:01.798Z,157.50
2018-06-12T09:49:01.836Z,168.75
2018-06-12T09:50:01.744Z,219.38
2018-06-12T09:51:01.728Z,185.63
2018-06-12T09:52:01.696Z,196.88
2018-06-12T09:53:01.677Z,230.63
2018-06-12T09:54:01.652Z,241.88
2018-06-12T09:55:01.629Z,241.88
2018-06-12T09:56:01.598Z,270.00
2018-06-12T09:57:01.578Z,236.25
2018-06-12T09:58:01.569Z,264.38
2018-06-12T09:59:01.529Z,253.13
2018-06-12T10:00:01.513Z,241.88
2018-06-12T10:01:01.498Z,241.88
2018-06-12T10:02:01.463Z,253.13
2018-06-12T10:03:01.439Z,286.88
2018-06-12T10:04:01.412Z,309.38
2018-06-12T10:05:01.401Z,264.38
2018-06-12T10:06:01.364Z,241.88
2018-06-12T10:07:01.340Z,236.25
2018-06-12T10:08:01.350Z,230.63
2018-06-12T10:09:01.327Z,236.25
2018-06-12T10:10:01.279Z,236.25
2018-06-12T10:11:01.248Z,225.00
2018-06-12T10:12:01.232Z,225.00
2018-06-12T10:13:01.201Z,230.63
2018-06-12T10:14:01.187Z,213.75
2018-06-12T10:15:01.178Z,202.50
2018-06-12T10:16:01.132Z,196.88
2018-06-12T10:17:01.118Z,196.88
2018-06-12T10:18:01.090Z,196.88
2018-06-12T10:19:01.067Z,191.25
2018-06-12T10:20:01.042Z,191.25
2018-06-12T10:21:01.034Z,196.88
2018-06-12T10:22:01.008Z,208.13
2018-06-12T10:23:00.990Z,219.38
2018-06-12T10:24:00.947Z,219.38
2018-06-12T10:25:00.976Z,225.00
2018-06-12T10:26:00.907Z,225.00
2018-06-12T10:27:00.881Z,230.63
2018-06-12T10:28:00.862Z,225.00
2018-06-12T10:29:00.851Z,219.38
2018-06-12T10:30:00.810Z,208.13
2018-06-12T10:31:00.788Z,196.88
2018-06-12T10:32:00.784Z,185.63
2018-06-12T10:33:00.746Z,180.00
2018-06-12T10:34:00.720Z,191.25
2018-06-12T10:35:00.706Z,202.50
2018-06-12T10:36:00.681Z,219.38
2018-06-12T10:37:00.653Z,236.25
2018-06-12T10:38:00.628Z,253.13
2018-06-12T10:39:00.607Z,258.75
2018-06-12T10:40:00.598Z,264.38
2018-06-12T10:41:00.557Z,258.75
2018-06-12T10:42:00.545Z,253.13
2018-06-12T10:43:00.535Z,253.13
2018-06-12T10:44:00.493Z,247.50
2018-06-12T10:45:00.470Z,241.88
2018-06-12T10:46:00.455Z,236.25
2018-06-12T10:47:00.428Z,230.63
2018-06-12T10:48:00.397Z,225.00
2018-06-12T10:49:00.381Z,208.13
2018-06-12T10:50:00.417Z,208.13
2018-06-12T10:51:00.327Z,202.50
2018-06-12T10:52:00.308Z,208.13
2018-06-12T10:53:00.282Z,208.13
2018-06-12T10:54:00.270Z,213.75
2018-06-12T10:55:00.241Z,202.50
2018-06-12T10:56:00.220Z,191.25
2018-06-12T10:57:00.194Z,185.63
2018-06-12T10:58:00.169Z,174.38
2018-06-12T10:59:00.158Z,174.38
2018-06-12T11:00:00.127Z,174.38
2018-06-12T11:01:00.107Z,180.00
2018-06-12T11:02:00.085Z,185.63
2018-06-12T11:03:00.053Z,191.25
2018-06-12T11:04:00.041Z,196.88
2018-06-12T11:05:00.035Z,208.13
2018-06-12T11:05:59.995Z,219.38
2018-06-12T11:06:59.974Z,202.50
2018-06-12T11:07:59.945Z,196.88
2018-06-12T11:08:59.924Z,191.25
2018-06-12T11:09:59.905Z,196.88
2018-06-12T11:10:59.876Z,202.50
2018-06-12T11:11:59.852Z,219.38
2018-06-12T11:12:59.832Z,230.63
2018-06-12T11:13:59.814Z,225.00
2018-06-12T11:14:59.780Z,219.38
2018-06-12T11:15:59.766Z,225.00
2018-06-12T11:16:59.736Z,230.63
2018-06-12T11:17:59.722Z,236.25
2018-06-12T11:18:59.698Z,236.25
2018-06-12T11:19:59.669Z,230.63
2018-06-12T11:20:59.654Z,230.63
2018-06-12T11:21:59.624Z,230.63
2018-06-12T11:22:59.608Z,230.63
2018-06-12T11:23:59.582Z,236.25
2018-06-12T11:24:59.555Z,230.63
2018-06-12T11:25:59.537Z,208.13
2018-06-12T11:26:59.521Z,180.00
2018-06-12T11:27:59.495Z,163.13
2018-06-12T11:28:59.476Z,157.50
2018-06-12T11:29:59.450Z,146.25
2018-06-12T11:30:59.423Z,140.63
2018-06-12T11:31:59.468Z,135.00
2018-06-12T11:32:59.391Z,129.38
2018-06-12T11:33:59.358Z,129.38
2018-06-12T11:34:59.332Z,129.38
2018-06-12T11:35:59.319Z,123.75
2018-06-12T11:36:59.293Z,123.75
2018-06-12T11:37:59.269Z,123.75
2018-06-12T11:38:59.249Z,118.13
2018-06-12T11:39:59.221Z,112.50
2018-06-12T11:40:59.207Z,112.50
2018-06-12T11:41:59.234Z,112.50
2018-06-12T11:42:59.157Z,112.50
2018-06-12T11:43:59.137Z,118.13
2018-06-12T11:44:59.114Z,123.75
2018-06-12T11:45:59.091Z,129.38
2018-06-12T11:46:59.081Z,135.00
2018-06-12T11:47:59.052Z,146.25
2018-06-12T11:48:59.015Z,151.88
2018-06-12T11:49:59.003Z,163.13
2018-06-12T11:50:58.994Z,163.13
2018-06-12T11:51:58.950Z,163.13
2018-06-12T11:52:58.928Z,174.38
2018-06-12T11:53:58.977Z,180.00
2018-06-12T11:54:58.895Z,185.63
2018-06-12T11:55:58.865Z,185.63
2018-06-12T11:56:58.834Z,191.25
2018-06-12T11:57:58.822Z,202.50
2018-06-12T11:58:58.791Z,202.50
2018-06-12T11:59:58.771Z,202.50
2018-06-12T12:00:58.757Z,208.13
2018-06-12T12:01:58.721Z,213.75
2018-06-12T12:02:58.733Z,202.50
2018-06-12T12:03:58.681Z,202.50
2018-06-12T12:04:58.684Z,196.88
2018-06-12T12:05:58.631Z,202.50
2018-06-12T12:06:58.620Z,202.50
2018-06-12T12:07:58.593Z,191.25
2018-06-12T12:08:58.569Z,185.63
2018-06-12T12:09:58.541Z,180.00
2018-06-12T12:10:58.518Z,180.00
2018-06-12T12:11:58.517Z,185.63
2018-06-12T12:12:58.481Z,185.63
2018-06-12T12:13:58.453Z,185.63
2018-06-12T12:14:58.428Z,185.63
2018-06-12T12:15:58.412Z,191.25
2018-06-12T12:16:58.447Z,196.88
2018-06-12T12:17:58.368Z,202.50
2018-06-12T12:18:58.363Z,213.75
2018-06-12T12:19:58.321Z,225.00
2018-06-12T12:20:58.288Z,236.25
2018-06-12T12:21:58.276Z,241.88
2018-06-12T12:22:58.246Z,253.13
2018-06-12T12:23:58.223Z,253.13
2018-06-12T12:24:58.203Z,247.50
2018-06-12T12:25:58.179Z,241.88
2018-06-12T12:26:58.148Z,241.88
2018-06-12T12:27:58.135Z,241.88
2018-06-12T12:28:58.112Z,241.88
2018-06-12T12:29:58.093Z,247.50
2018-06-12T12:30:58.062Z,247.50
2018-06-12T12:31:58.045Z,247.50
2018-06-12T12:32:58.025Z,270.00
2018-06-12T12:33:57.999Z,270.00
2018-06-12T12:34:57.973Z,253.13
2018-06-12T12:35:57.956Z,258.75
2018-06-12T12:36:57.927Z,247.50
2018-06-12T12:37:57.908Z,236.25
2018-06-12T12:38:57.879Z,230.63
2018-06-12T12:39:57.867Z,225.00
2018-06-12T12:40:57.838Z,230.63
2018-06-12T12:41:57.823Z,230.63
2018-06-12T12:42:57.798Z,230.63
2018-06-12T12:43:57.769Z,225.00
2018-06-12T12:44:57.750Z,225.00
2018-06-12T12:45:57.729Z,219.38
2018-06-12T12:46:57.705Z,213.75
2018-06-12T12:47:57.683Z,208.13
2018-06-12T12:48:57.655Z,202.50